sensor_id;sensor_type;location;lat;lon;timestamp;temperature;humidity
80279;DHT22;70683;52.492;13.416;2023-07-20T00:01:29;18.90;81.70
80279;DHT22;70683;52.492;13.416;2023-07-20T00:03:56;18.90;81.50
80279;DHT22;70683;52.492;13.416;2023-07-20T00:06:24;18.90;81.60
80279;DHT22;70683;52.492;13.416;2023-07-20T00:08:54;18.90;81.20
80279;DHT22;70683;52.492;13.416;2023-07-20T00:11:25;19.00;81.50
80279;DHT22;70683;52.492;13.416;2023-07-20T00:13:50;18.90;82.10
80279;DHT22;70683;52.492;13.416;2023-07-20T00:16:16;18.90;81.10
80279;DHT22;70683;52.492;13.416;2023-07-20T00:18:43;18.90;81.10
80279;DHT22;70683;52.492;13.416;2023-07-20T00:21:10;18.90;80.80
80279;DHT22;70683;52.492;13.416;2023-07-20T00:23:37;18.90;80.90
80279;DHT22;70683;52.492;13.416;2023-07-20T00:26:04;18.90;80.90
80279;DHT22;70683;52.492;13.416;2023-07-20T00:28:30;18.90;81.00
80279;DHT22;70683;52.492;13.416;2023-07-20T00:30:59;19.00;81.10
80279;DHT22;70683;52.492;13.416;2023-07-20T00:33:26;19.00;81.60
80279;DHT22;70683;52.492;13.416;2023-07-20T00:35:53;19.00;81.20
80279;DHT22;70683;52.492;13.416;2023-07-20T00:38:20;19.00;80.90
80279;DHT22;70683;52.492;13.416;2023-07-20T00:40:46;19.00;81.20
80279;DHT22;70683;52.492;13.416;2023-07-20T00:43:15;19.00;81.00
80279;DHT22;70683;52.492;13.416;2023-07-20T00:45:42;18.90;81.80
80279;DHT22;70683;52.492;13.416;2023-07-20T00:48:09;18.90;81.30
80279;DHT22;70683;52.492;13.416;2023-07-20T00:50:37;18.90;81.20
80279;DHT22;70683;52.492;13.416;2023-07-20T00:53:05;18.90;81.10
80279;DHT22;70683;52.492;13.416;2023-07-20T00:55:32;18.90;81.60
80279;DHT22;70683;52.492;13.416;2023-07-20T00:58:00;18.80;81.20
80279;DHT22;70683;52.492;13.416;2023-07-20T01:00:27;18.80;81.30
80279;DHT22;70683;52.492;13.416;2023-07-20T01:02:53;18.80;81.60
80279;DHT22;70683;52.492;13.416;2023-07-20T01:05:20;18.70;82.10
80279;DHT22;70683;52.492;13.416;2023-07-20T01:07:58;18.80;82.00
80279;DHT22;70683;52.492;13.416;2023-07-20T01:10:43;18.70;81.80
80279;DHT22;70683;52.492;13.416;2023-07-20T01:13:10;18.60;82.10
80279;DHT22;70683;52.492;13.416;2023-07-20T01:15:37;18.50;82.50
80279;DHT22;70683;52.492;13.416;2023-07-20T01:18:04;18.50;82.20
80279;DHT22;70683;52.492;13.416;2023-07-20T01:20:31;18.60;82.90
80279;DHT22;70683;52.492;13.416;2023-07-20T01:27:20;18.50;82.10
80279;DHT22;70683;52.492;13.416;2023-07-20T01:31:33;18.50;82.10
80279;DHT22;70683;52.492;13.416;2023-07-20T01:34:02;18.50;82.50
80279;DHT22;70683;52.492;13.416;2023-07-20T01:36:33;18.40;82.40
80279;DHT22;70683;52.492;13.416;2023-07-20T01:39:00;18.40;82.10
80279;DHT22;70683;52.492;13.416;2023-07-20T01:41:28;18.40;82.20
80279;DHT22;70683;52.492;13.416;2023-07-20T01:43:58;18.40;81.70
80279;DHT22;70683;52.492;13.416;2023-07-20T01:46:25;18.40;82.10
80279;DHT22;70683;52.492;13.416;2023-07-20T01:48:53;18.50;82.00
80279;DHT22;70683;52.492;13.416;2023-07-20T01:51:20;18.50;81.70
80279;DHT22;70683;52.492;13.416;2023-07-20T01:53:46;18.40;82.10
80279;DHT22;70683;52.492;13.416;2023-07-20T01:56:13;18.40;82.00
80279;DHT22;70683;52.492;13.416;2023-07-20T01:58:40;18.40;82.10
80279;DHT22;70683;52.492;13.416;2023-07-20T02:01:06;18.50;81.80
80279;DHT22;70683;52.492;13.416;2023-07-20T02:03:33;18.50;81.90
80279;DHT22;70683;52.492;13.416;2023-07-20T02:06:00;18.50;81.80
80279;DHT22;70683;52.492;13.416;2023-07-20T02:08:26;18.50;81.70
80279;DHT22;70683;52.492;13.416;2023-07-20T02:10:53;18.50;81.80
80279;DHT22;70683;52.492;13.416;2023-07-20T02:13:20;18.50;82.90
80279;DHT22;70683;52.492;13.416;2023-07-20T02:15:46;18.40;81.40
80279;DHT22;70683;52.492;13.416;2023-07-20T02:18:15;18.40;81.80
80279;DHT22;70683;52.492;13.416;2023-07-20T02:20:42;18.30;81.90
80279;DHT22;70683;52.492;13.416;2023-07-20T02:23:09;18.20;81.90
80279;DHT22;70683;52.492;13.416;2023-07-20T02:25:36;18.30;81.60
80279;DHT22;70683;52.492;13.416;2023-07-20T02:28:04;18.30;81.70
80279;DHT22;70683;52.492;13.416;2023-07-20T02:30:31;18.20;81.60
80279;DHT22;70683;52.492;13.416;2023-07-20T02:32:57;18.20;81.60
80279;DHT22;70683;52.492;13.416;2023-07-20T02:35:24;18.10;82.20
80279;DHT22;70683;52.492;13.416;2023-07-20T02:37:52;18.20;82.30
80279;DHT22;70683;52.492;13.416;2023-07-20T02:40:19;18.20;82.00
80279;DHT22;70683;52.492;13.416;2023-07-20T02:42:46;18.20;82.20
80279;DHT22;70683;52.492;13.416;2023-07-20T02:45:12;18.20;81.90
80279;DHT22;70683;52.492;13.416;2023-07-20T02:47:39;18.10;82.50
80279;DHT22;70683;52.492;13.416;2023-07-20T02:50:08;18.10;82.30
80279;DHT22;70683;52.492;13.416;2023-07-20T02:52:34;18.00;82.90
80279;DHT22;70683;52.492;13.416;2023-07-20T02:55:01;18.00;82.90
80279;DHT22;70683;52.492;13.416;2023-07-20T02:57:28;18.10;82.70
80279;DHT22;70683;52.492;13.416;2023-07-20T02:59:55;18.10;82.00
80279;DHT22;70683;52.492;13.416;2023-07-20T03:02:22;18.10;82.10
80279;DHT22;70683;52.492;13.416;2023-07-20T03:04:48;18.10;81.80
80279;DHT22;70683;52.492;13.416;2023-07-20T03:07:15;18.00;81.80
80279;DHT22;70683;52.492;13.416;2023-07-20T03:09:41;18.10;81.40
80279;DHT22;70683;52.492;13.416;2023-07-20T03:12:09;17.90;81.80
80279;DHT22;70683;52.492;13.416;2023-07-20T03:14:36;17.70;82.50
80279;DHT22;70683;52.492;13.416;2023-07-20T03:17:03;17.70;82.90
80279;DHT22;70683;52.492;13.416;2023-07-20T03:19:30;17.70;82.50
80279;DHT22;70683;52.492;13.416;2023-07-20T03:21:57;17.80;82.30
80279;DHT22;70683;52.492;13.416;2023-07-20T03:24:23;17.70;82.80
80279;DHT22;70683;52.492;13.416;2023-07-20T03:26:50;17.70;83.20
80279;DHT22;70683;52.492;13.416;2023-07-20T03:29:17;17.70;83.70
80279;DHT22;70683;52.492;13.416;2023-07-20T03:31:43;17.80;82.90
80279;DHT22;70683;52.492;13.416;2023-07-20T03:34:10;17.90;82.30
80279;DHT22;70683;52.492;13.416;2023-07-20T03:36:36;17.90;82.60
80279;DHT22;70683;52.492;13.416;2023-07-20T03:39:03;17.90;82.30
80279;DHT22;70683;52.492;13.416;2023-07-20T03:41:30;18.00;82.10
80279;DHT22;70683;52.492;13.416;2023-07-20T03:43:57;18.00;81.90
80279;DHT22;70683;52.492;13.416;2023-07-20T03:46:24;18.10;81.50
80279;DHT22;70683;52.492;13.416;2023-07-20T03:48:51;18.20;81.30
80279;DHT22;70683;52.492;13.416;2023-07-20T03:51:17;18.20;81.00
80279;DHT22;70683;52.492;13.416;2023-07-20T03:53:44;18.20;81.40
80279;DHT22;70683;52.492;13.416;2023-07-20T03:56:11;18.30;81.20
80279;DHT22;70683;52.492;13.416;2023-07-20T03:58:37;18.30;81.20
80279;DHT22;70683;52.492;13.416;2023-07-20T04:01:04;18.40;80.60
80279;DHT22;70683;52.492;13.416;2023-07-20T04:03:31;18.50;80.20
80279;DHT22;70683;52.492;13.416;2023-07-20T04:05:57;18.50;79.80
80279;DHT22;70683;52.492;13.416;2023-07-20T04:08:24;18.60;80.50
80279;DHT22;70683;52.492;13.416;2023-07-20T04:10:51;18.40;79.50
80279;DHT22;70683;52.492;13.416;2023-07-20T04:13:18;18.20;80.10
80279;DHT22;70683;52.492;13.416;2023-07-20T04:15:45;18.10;81.00
80279;DHT22;70683;52.492;13.416;2023-07-20T04:18:12;18.10;81.20
80279;DHT22;70683;52.492;13.416;2023-07-20T04:20:38;18.00;81.30
80279;DHT22;70683;52.492;13.416;2023-07-20T04:23:05;18.10;81.30
80279;DHT22;70683;52.492;13.416;2023-07-20T04:25:32;18.10;81.00
80279;DHT22;70683;52.492;13.416;2023-07-20T04:28:00;18.10;80.50
80279;DHT22;70683;52.492;13.416;2023-07-20T04:30:27;18.10;80.70
80279;DHT22;70683;52.492;13.416;2023-07-20T04:32:54;18.10;80.70
80279;DHT22;70683;52.492;13.416;2023-07-20T04:38:10;18.10;80.40
80279;DHT22;70683;52.492;13.416;2023-07-20T04:40:38;18.10;80.50
80279;DHT22;70683;52.492;13.416;2023-07-20T04:43:04;18.10;81.40
80279;DHT22;70683;52.492;13.416;2023-07-20T04:45:31;18.10;80.80
80279;DHT22;70683;52.492;13.416;2023-07-20T04:47:58;18.10;80.60
80279;DHT22;70683;52.492;13.416;2023-07-20T04:50:25;18.20;80.20
80279;DHT22;70683;52.492;13.416;2023-07-20T04:52:52;18.20;80.40
80279;DHT22;70683;52.492;13.416;2023-07-20T04:55:19;18.20;80.00
80279;DHT22;70683;52.492;13.416;2023-07-20T04:57:45;18.10;80.00
80279;DHT22;70683;52.492;13.416;2023-07-20T05:00:13;18.20;80.10
80279;DHT22;70683;52.492;13.416;2023-07-20T05:02:40;18.20;79.80
80279;DHT22;70683;52.492;13.416;2023-07-20T05:05:07;18.20;79.90
80279;DHT22;70683;52.492;13.416;2023-07-20T05:07:34;18.20;79.80
80279;DHT22;70683;52.492;13.416;2023-07-20T05:10:00;18.20;79.60
80279;DHT22;70683;52.492;13.416;2023-07-20T05:12:27;18.30;79.60
80279;DHT22;70683;52.492;13.416;2023-07-20T05:14:53;18.40;79.30
80279;DHT22;70683;52.492;13.416;2023-07-20T05:17:20;18.50;79.00
80279;DHT22;70683;52.492;13.416;2023-07-20T05:19:47;18.40;78.00
80279;DHT22;70683;52.492;13.416;2023-07-20T05:22:14;18.50;78.00
80279;DHT22;70683;52.492;13.416;2023-07-20T05:24:40;18.50;77.50
80279;DHT22;70683;52.492;13.416;2023-07-20T05:27:07;18.50;77.00
80279;DHT22;70683;52.492;13.416;2023-07-20T05:29:34;18.50;77.80
80279;DHT22;70683;52.492;13.416;2023-07-20T05:32:00;18.60;77.00
80279;DHT22;70683;52.492;13.416;2023-07-20T05:34:28;18.60;76.50
80279;DHT22;70683;52.492;13.416;2023-07-20T05:36:55;18.70;76.40
80279;DHT22;70683;52.492;13.416;2023-07-20T05:39:22;18.70;75.70
80279;DHT22;70683;52.492;13.416;2023-07-20T05:41:48;18.60;75.50
80279;DHT22;70683;52.492;13.416;2023-07-20T05:44:15;18.60;76.10
80279;DHT22;70683;52.492;13.416;2023-07-20T05:46:42;18.60;76.30
80279;DHT22;70683;52.492;13.416;2023-07-20T05:49:08;18.70;76.10
80279;DHT22;70683;52.492;13.416;2023-07-20T05:51:36;18.90;76.00
80279;DHT22;70683;52.492;13.416;2023-07-20T05:54:02;18.80;75.60
80279;DHT22;70683;52.492;13.416;2023-07-20T05:56:29;18.80;76.00
80279;DHT22;70683;52.492;13.416;2023-07-20T05:58:55;19.00;75.40
80279;DHT22;70683;52.492;13.416;2023-07-20T06:01:23;19.30;75.10
80279;DHT22;70683;52.492;13.416;2023-07-20T06:03:51;19.60;73.80
80279;DHT22;70683;52.492;13.416;2023-07-20T06:06:18;19.70;72.50
80279;DHT22;70683;52.492;13.416;2023-07-20T06:08:45;19.80;72.30
80279;DHT22;70683;52.492;13.416;2023-07-20T06:11:12;19.80;71.20
80279;DHT22;70683;52.492;13.416;2023-07-20T06:13:38;19.80;71.10
80279;DHT22;70683;52.492;13.416;2023-07-20T06:16:05;19.80;71.20
80279;DHT22;70683;52.492;13.416;2023-07-20T06:18:32;19.70;71.00
80279;DHT22;70683;52.492;13.416;2023-07-20T06:20:58;19.60;71.90
80279;DHT22;70683;52.492;13.416;2023-07-20T06:23:25;19.60;71.70
80279;DHT22;70683;52.492;13.416;2023-07-20T06:25:51;19.60;72.10
80279;DHT22;70683;52.492;13.416;2023-07-20T06:28:18;19.60;72.30
80279;DHT22;70683;52.492;13.416;2023-07-20T06:30:45;19.50;72.40
80279;DHT22;70683;52.492;13.416;2023-07-20T06:33:12;19.40;72.20
80279;DHT22;70683;52.492;13.416;2023-07-20T06:35:41;19.40;72.20
80279;DHT22;70683;52.492;13.416;2023-07-20T06:38:09;19.40;71.20
80279;DHT22;70683;52.492;13.416;2023-07-20T06:40:35;19.30;71.50
80279;DHT22;70683;52.492;13.416;2023-07-20T06:43:02;19.20;71.90
80279;DHT22;70683;52.492;13.416;2023-07-20T06:45:30;19.40;72.10
80279;DHT22;70683;52.492;13.416;2023-07-20T06:47:57;19.50;71.30
80279;DHT22;70683;52.492;13.416;2023-07-20T06:50:24;19.50;71.00
80279;DHT22;70683;52.492;13.416;2023-07-20T06:52:50;19.80;69.40
80279;DHT22;70683;52.492;13.416;2023-07-20T06:55:18;20.00;68.40
80279;DHT22;70683;52.492;13.416;2023-07-20T06:57:44;20.20;67.10
80279;DHT22;70683;52.492;13.416;2023-07-20T07:00:12;20.10;67.10
80279;DHT22;70683;52.492;13.416;2023-07-20T07:02:39;19.90;66.90
80279;DHT22;70683;52.492;13.416;2023-07-20T07:05:06;19.90;67.10
80279;DHT22;70683;52.492;13.416;2023-07-20T07:07:33;19.90;67.40
80279;DHT22;70683;52.492;13.416;2023-07-20T07:10:00;20.10;66.70
80279;DHT22;70683;52.492;13.416;2023-07-20T07:12:29;20.20;65.30
80279;DHT22;70683;52.492;13.416;2023-07-20T07:14:56;20.40;63.80
80279;DHT22;70683;52.492;13.416;2023-07-20T07:17:23;20.40;63.70
80279;DHT22;70683;52.492;13.416;2023-07-20T07:19:50;20.80;62.70
80279;DHT22;70683;52.492;13.416;2023-07-20T07:22:19;21.10;62.10
80279;DHT22;70683;52.492;13.416;2023-07-20T07:24:47;21.30;60.30
80279;DHT22;70683;52.492;13.416;2023-07-20T07:27:14;21.30;59.70
80279;DHT22;70683;52.492;13.416;2023-07-20T07:29:42;21.10;61.40
80279;DHT22;70683;52.492;13.416;2023-07-20T07:32:12;21.30;59.60
80279;DHT22;70683;52.492;13.416;2023-07-20T07:34:39;21.80;59.30
80279;DHT22;70683;52.492;13.416;2023-07-20T07:37:06;22.20;56.30
80279;DHT22;70683;52.492;13.416;2023-07-20T07:39:33;22.20;55.10
80279;DHT22;70683;52.492;13.416;2023-07-20T07:41:59;22.40;55.50
80279;DHT22;70683;52.492;13.416;2023-07-20T07:44:26;22.80;54.40
80279;DHT22;70683;52.492;13.416;2023-07-20T07:46:52;23.20;53.60
80279;DHT22;70683;52.492;13.416;2023-07-20T07:49:20;23.60;52.20
80279;DHT22;70683;52.492;13.416;2023-07-20T07:51:46;23.70;51.40
80279;DHT22;70683;52.492;13.416;2023-07-20T07:54:14;24.00;51.50
80279;DHT22;70683;52.492;13.416;2023-07-20T07:56:41;24.20;50.80
80279;DHT22;70683;52.492;13.416;2023-07-20T07:59:10;24.50;50.60
80279;DHT22;70683;52.492;13.416;2023-07-20T08:01:37;24.40;50.30
80279;DHT22;70683;52.492;13.416;2023-07-20T08:04:04;24.30;49.50
80279;DHT22;70683;52.492;13.416;2023-07-20T08:06:31;24.00;50.50
80279;DHT22;70683;52.492;13.416;2023-07-20T08:08:58;23.90;48.90
80279;DHT22;70683;52.492;13.416;2023-07-20T08:11:26;23.90;48.40
80279;DHT22;70683;52.492;13.416;2023-07-20T08:13:53;23.90;47.90
80279;DHT22;70683;52.492;13.416;2023-07-20T08:16:20;23.50;48.80
80279;DHT22;70683;52.492;13.416;2023-07-20T08:18:47;23.20;49.80
80279;DHT22;70683;52.492;13.416;2023-07-20T08:21:14;23.00;50.30
80279;DHT22;70683;52.492;13.416;2023-07-20T08:23:41;22.90;51.00
80279;DHT22;70683;52.492;13.416;2023-07-20T08:26:08;22.80;51.50
80279;DHT22;70683;52.492;13.416;2023-07-20T08:28:34;22.30;52.30
80279;DHT22;70683;52.492;13.416;2023-07-20T08:31:01;22.10;53.70
80279;DHT22;70683;52.492;13.416;2023-07-20T08:33:28;22.10;53.40
80279;DHT22;70683;52.492;13.416;2023-07-20T08:35:57;22.10;53.90
80279;DHT22;70683;52.492;13.416;2023-07-20T08:38:24;22.00;54.40
80279;DHT22;70683;52.492;13.416;2023-07-20T08:40:51;22.00;54.60
80279;DHT22;70683;52.492;13.416;2023-07-20T08:43:21;22.20;54.30
80279;DHT22;70683;52.492;13.416;2023-07-20T08:45:50;22.30;53.90
80279;DHT22;70683;52.492;13.416;2023-07-20T08:48:18;22.60;53.50
80279;DHT22;70683;52.492;13.416;2023-07-20T08:50:51;22.90;52.20
80279;DHT22;70683;52.492;13.416;2023-07-20T08:53:18;23.20;51.40
80279;DHT22;70683;52.492;13.416;2023-07-20T08:55:45;23.50;51.00
80279;DHT22;70683;52.492;13.416;2023-07-20T08:58:13;23.60;50.30
80279;DHT22;70683;52.492;13.416;2023-07-20T09:00:42;23.80;49.70
80279;DHT22;70683;52.492;13.416;2023-07-20T09:03:10;23.80;49.00
80279;DHT22;70683;52.492;13.416;2023-07-20T09:05:37;23.60;48.50
80279;DHT22;70683;52.492;13.416;2023-07-20T09:08:06;23.30;50.00
80279;DHT22;70683;52.492;13.416;2023-07-20T09:10:33;23.40;50.10
80279;DHT22;70683;52.492;13.416;2023-07-20T09:12:59;23.70;49.50
80279;DHT22;70683;52.492;13.416;2023-07-20T09:15:26;23.90;48.90
80279;DHT22;70683;52.492;13.416;2023-07-20T09:17:53;24.40;48.00
80279;DHT22;70683;52.492;13.416;2023-07-20T09:20:20;24.60;46.50
80279;DHT22;70683;52.492;13.416;2023-07-20T09:22:47;24.80;46.80
80279;DHT22;70683;52.492;13.416;2023-07-20T09:25:16;24.70;45.70
80279;DHT22;70683;52.492;13.416;2023-07-20T09:27:47;24.80;46.50
80279;DHT22;70683;52.492;13.416;2023-07-20T09:30:15;25.30;46.20
80279;DHT22;70683;52.492;13.416;2023-07-20T09:32:44;25.70;44.90
80279;DHT22;70683;52.492;13.416;2023-07-20T09:35:13;25.90;44.40
80279;DHT22;70683;52.492;13.416;2023-07-20T09:37:45;26.10;43.30
80279;DHT22;70683;52.492;13.416;2023-07-20T09:40:11;26.10;42.70
80279;DHT22;70683;52.492;13.416;2023-07-20T09:42:40;26.20;42.70
80279;DHT22;70683;52.492;13.416;2023-07-20T09:45:08;26.20;42.00
80279;DHT22;70683;52.492;13.416;2023-07-20T09:47:36;26.00;42.90
80279;DHT22;70683;52.492;13.416;2023-07-20T09:50:06;26.10;43.70
80279;DHT22;70683;52.492;13.416;2023-07-20T09:52:39;26.00;43.10
80279;DHT22;70683;52.492;13.416;2023-07-20T09:55:07;25.90;43.40
80279;DHT22;70683;52.492;13.416;2023-07-20T09:57:35;25.70;43.00
80279;DHT22;70683;52.492;13.416;2023-07-20T10:00:05;25.30;43.20
80279;DHT22;70683;52.492;13.416;2023-07-20T10:02:42;24.80;45.30
80279;DHT22;70683;52.492;13.416;2023-07-20T10:05:08;24.30;46.50
80279;DHT22;70683;52.492;13.416;2023-07-20T10:07:40;23.90;46.90
80279;DHT22;70683;52.492;13.416;2023-07-20T10:10:09;23.40;48.40
80279;DHT22;70683;52.492;13.416;2023-07-20T10:12:37;23.10;49.50
80279;DHT22;70683;52.492;13.416;2023-07-20T10:15:11;23.00;50.10
80279;DHT22;70683;52.492;13.416;2023-07-20T10:17:49;23.10;50.20
80279;DHT22;70683;52.492;13.416;2023-07-20T10:20:18;23.00;49.90
80279;DHT22;70683;52.492;13.416;2023-07-20T10:22:49;23.00;50.00
80279;DHT22;70683;52.492;13.416;2023-07-20T10:25:18;22.90;51.50
80279;DHT22;70683;52.492;13.416;2023-07-20T10:27:47;22.90;51.90
80279;DHT22;70683;52.492;13.416;2023-07-20T10:30:13;23.10;52.00
80279;DHT22;70683;52.492;13.416;2023-07-20T10:32:41;22.80;51.50
80279;DHT22;70683;52.492;13.416;2023-07-20T10:35:14;22.80;52.00
80279;DHT22;70683;52.492;13.416;2023-07-20T10:37:48;22.90;52.20
80279;DHT22;70683;52.492;13.416;2023-07-20T10:43:01;22.50;52.50
80279;DHT22;70683;52.492;13.416;2023-07-20T10:45:34;22.50;51.90
80279;DHT22;70683;52.492;13.416;2023-07-20T10:48:04;22.30;51.40
80279;DHT22;70683;52.492;13.416;2023-07-20T10:50:33;21.90;53.00
80279;DHT22;70683;52.492;13.416;2023-07-20T10:53:09;21.60;54.50
80279;DHT22;70683;52.492;13.416;2023-07-20T10:55:33;21.70;55.20
80279;DHT22;70683;52.492;13.416;2023-07-20T10:58:08;21.70;56.50
80279;DHT22;70683;52.492;13.416;2023-07-20T11:00:36;21.80;56.10
80279;DHT22;70683;52.492;13.416;2023-07-20T11:03:04;21.80;56.30
80279;DHT22;70683;52.492;13.416;2023-07-20T11:05:37;21.70;56.40
80279;DHT22;70683;52.492;13.416;2023-07-20T11:08:10;21.80;55.90
80279;DHT22;70683;52.492;13.416;2023-07-20T11:10:37;22.00;55.60
80279;DHT22;70683;52.492;13.416;2023-07-20T11:15:48;22.40;53.80
80279;DHT22;70683;52.492;13.416;2023-07-20T11:18:15;22.50;52.80
80279;DHT22;70683;52.492;13.416;2023-07-20T11:20:41;22.70;53.10
80279;DHT22;70683;52.492;13.416;2023-07-20T11:23:09;22.70;52.90
80279;DHT22;70683;52.492;13.416;2023-07-20T11:25:38;22.90;52.80
80279;DHT22;70683;52.492;13.416;2023-07-20T11:28:08;23.00;52.10
80279;DHT22;70683;52.492;13.416;2023-07-20T11:30:38;23.00;52.10
80279;DHT22;70683;52.492;13.416;2023-07-20T11:33:05;23.00;52.10
80279;DHT22;70683;52.492;13.416;2023-07-20T11:35:35;23.10;51.50
80279;DHT22;70683;52.492;13.416;2023-07-20T11:38:02;23.20;51.40
80279;DHT22;70683;52.492;13.416;2023-07-20T11:40:29;23.70;50.70
80279;DHT22;70683;52.492;13.416;2023-07-20T11:42:56;23.80;50.20
80279;DHT22;70683;52.492;13.416;2023-07-20T11:45:22;24.10;49.00
80279;DHT22;70683;52.492;13.416;2023-07-20T11:47:49;24.70;48.60
80279;DHT22;70683;52.492;13.416;2023-07-20T11:50:16;25.50;46.60
80279;DHT22;70683;52.492;13.416;2023-07-20T11:52:43;26.60;44.50
80279;DHT22;70683;52.492;13.416;2023-07-20T11:55:10;27.40;42.40
80279;DHT22;70683;52.492;13.416;2023-07-20T11:57:38;27.70;40.80
80279;DHT22;70683;52.492;13.416;2023-07-20T12:00:06;27.70;40.90
80279;DHT22;70683;52.492;13.416;2023-07-20T12:02:37;27.80;40.00
80279;DHT22;70683;52.492;13.416;2023-07-20T12:05:06;27.80;38.70
80279;DHT22;70683;52.492;13.416;2023-07-20T12:07:36;27.50;39.10
80279;DHT22;70683;52.492;13.416;2023-07-20T12:10:05;27.30;40.00
80279;DHT22;70683;52.492;13.416;2023-07-20T12:12:34;27.10;40.60
80279;DHT22;70683;52.492;13.416;2023-07-20T12:15:13;26.80;41.30
80279;DHT22;70683;52.492;13.416;2023-07-20T12:17:44;26.40;41.60
80279;DHT22;70683;52.492;13.416;2023-07-20T12:20:11;26.00;42.80
80279;DHT22;70683;52.492;13.416;2023-07-20T12:22:42;25.60;43.40
80279;DHT22;70683;52.492;13.416;2023-07-20T12:25:09;25.10;45.10
80279;DHT22;70683;52.492;13.416;2023-07-20T12:27:36;24.60;46.10
80279;DHT22;70683;52.492;13.416;2023-07-20T12:30:06;24.00;46.90
80279;DHT22;70683;52.492;13.416;2023-07-20T12:32:33;23.80;46.80
80279;DHT22;70683;52.492;13.416;2023-07-20T12:35:00;23.70;48.00
80279;DHT22;70683;52.492;13.416;2023-07-20T12:37:27;23.50;47.00
80279;DHT22;70683;52.492;13.416;2023-07-20T12:39:53;23.30;48.20
80279;DHT22;70683;52.492;13.416;2023-07-20T12:42:20;23.20;48.30
80279;DHT22;70683;52.492;13.416;2023-07-20T12:44:48;23.20;47.70
80279;DHT22;70683;52.492;13.416;2023-07-20T12:47:16;23.30;46.30
80279;DHT22;70683;52.492;13.416;2023-07-20T12:49:43;24.00;45.20
80279;DHT22;70683;52.492;13.416;2023-07-20T12:52:12;25.10;43.00
80279;DHT22;70683;52.492;13.416;2023-07-20T12:54:39;26.50;40.90
80279;DHT22;70683;52.492;13.416;2023-07-20T12:57:06;28.60;37.50
80279;DHT22;70683;52.492;13.416;2023-07-20T12:59:39;30.20;35.40
80279;DHT22;70683;52.492;13.416;2023-07-20T13:02:05;31.90;30.60
80279;DHT22;70683;52.492;13.416;2023-07-20T13:04:32;32.70;28.40
80279;DHT22;70683;52.492;13.416;2023-07-20T13:06:59;33.20;28.00
80279;DHT22;70683;52.492;13.416;2023-07-20T13:09:25;34.00;26.20
80279;DHT22;70683;52.492;13.416;2023-07-20T13:11:52;34.40;26.10
80279;DHT22;70683;52.492;13.416;2023-07-20T13:14:19;34.60;24.10
80279;DHT22;70683;52.492;13.416;2023-07-20T13:16:45;34.50;22.40
80279;DHT22;70683;52.492;13.416;2023-07-20T13:19:12;33.90;22.80
80279;DHT22;70683;52.492;13.416;2023-07-20T13:21:38;33.80;23.50
80279;DHT22;70683;52.492;13.416;2023-07-20T13:24:06;34.30;25.20
80279;DHT22;70683;52.492;13.416;2023-07-20T13:26:32;34.90;22.20
80279;DHT22;70683;52.492;13.416;2023-07-20T13:28:59;35.00;22.20
80279;DHT22;70683;52.492;13.416;2023-07-20T13:31:25;34.30;22.20
80279;DHT22;70683;52.492;13.416;2023-07-20T13:33:52;34.30;23.00
80279;DHT22;70683;52.492;13.416;2023-07-20T13:36:19;34.80;22.70
80279;DHT22;70683;52.492;13.416;2023-07-20T13:38:47;35.50;22.00
80279;DHT22;70683;52.492;13.416;2023-07-20T13:41:14;35.70;20.80
80279;DHT22;70683;52.492;13.416;2023-07-20T13:43:42;35.60;20.60
80279;DHT22;70683;52.492;13.416;2023-07-20T13:46:10;35.90;21.00
80279;DHT22;70683;52.492;13.416;2023-07-20T13:48:37;34.70;20.80
80279;DHT22;70683;52.492;13.416;2023-07-20T13:51:03;32.70;22.40
80279;DHT22;70683;52.492;13.416;2023-07-20T13:53:30;30.70;24.80
80279;DHT22;70683;52.492;13.416;2023-07-20T13:55:56;29.80;26.70
80279;DHT22;70683;52.492;13.416;2023-07-20T13:58:25;29.20;27.50
80279;DHT22;70683;52.492;13.416;2023-07-20T14:00:51;28.30;28.60
80279;DHT22;70683;52.492;13.416;2023-07-20T14:03:18;27.90;30.00
80279;DHT22;70683;52.492;13.416;2023-07-20T14:05:45;27.50;30.50
80279;DHT22;70683;52.492;13.416;2023-07-20T14:08:12;27.20;31.10
80279;DHT22;70683;52.492;13.416;2023-07-20T14:10:38;26.90;31.60
80279;DHT22;70683;52.492;13.416;2023-07-20T14:13:05;26.70;32.40
80279;DHT22;70683;52.492;13.416;2023-07-20T14:15:33;26.20;33.10
80279;DHT22;70683;52.492;13.416;2023-07-20T14:18:00;26.20;33.10
80279;DHT22;70683;52.492;13.416;2023-07-20T14:20:27;26.20;33.50
80279;DHT22;70683;52.492;13.416;2023-07-20T14:22:53;25.90;34.30
80279;DHT22;70683;52.492;13.416;2023-07-20T14:25:20;25.70;33.70
80279;DHT22;70683;52.492;13.416;2023-07-20T14:27:47;25.40;34.10
80279;DHT22;70683;52.492;13.416;2023-07-20T14:30:13;25.30;34.00
80279;DHT22;70683;52.492;13.416;2023-07-20T14:32:41;24.90;33.20
80279;DHT22;70683;52.492;13.416;2023-07-20T14:35:08;24.80;33.80
80279;DHT22;70683;52.492;13.416;2023-07-20T14:37:35;25.00;33.90
80279;DHT22;70683;52.492;13.416;2023-07-20T14:40:01;25.10;34.80
80279;DHT22;70683;52.492;13.416;2023-07-20T14:42:30;25.20;34.70
80279;DHT22;70683;52.492;13.416;2023-07-20T14:44:58;25.10;33.70
80279;DHT22;70683;52.492;13.416;2023-07-20T14:47:25;24.80;33.90
80279;DHT22;70683;52.492;13.416;2023-07-20T14:49:51;24.40;34.70
80279;DHT22;70683;52.492;13.416;2023-07-20T14:52:18;24.20;34.60
80279;DHT22;70683;52.492;13.416;2023-07-20T14:54:44;24.10;35.40
80279;DHT22;70683;52.492;13.416;2023-07-20T14:57:11;24.20;35.50
80279;DHT22;70683;52.492;13.416;2023-07-20T14:59:41;24.40;35.80
80279;DHT22;70683;52.492;13.416;2023-07-20T15:02:09;24.60;35.00
80279;DHT22;70683;52.492;13.416;2023-07-20T15:04:36;24.80;35.30
80279;DHT22;70683;52.492;13.416;2023-07-20T15:07:04;24.90;34.40
80279;DHT22;70683;52.492;13.416;2023-07-20T15:09:31;24.80;34.40
80279;DHT22;70683;52.492;13.416;2023-07-20T15:11:57;24.80;34.60
80279;DHT22;70683;52.492;13.416;2023-07-20T15:14:24;24.80;34.60
80279;DHT22;70683;52.492;13.416;2023-07-20T15:16:50;24.80;35.50
80279;DHT22;70683;52.492;13.416;2023-07-20T15:19:17;24.80;35.10
80279;DHT22;70683;52.492;13.416;2023-07-20T15:21:44;24.90;34.90
80279;DHT22;70683;52.492;13.416;2023-07-20T15:24:10;24.90;34.50
80279;DHT22;70683;52.492;13.416;2023-07-20T15:26:37;24.90;34.80
80279;DHT22;70683;52.492;13.416;2023-07-20T15:29:04;24.80;34.10
80279;DHT22;70683;52.492;13.416;2023-07-20T15:31:31;24.60;34.70